createdAt,value
2023-03-28T00:01:58.327Z,18.27
2023-03-28T00:08:00.374Z,18.10
2023-03-28T00:14:02.154Z,17.38
2023-03-28T00:20:06.324Z,12.52
2023-03-28T00:26:09.351Z,20.00
2023-03-28T00:32:11.140Z,15.40
2023-03-28T00:38:13.916Z,21.70
2023-03-28T00:44:37.855Z,14.82
2023-03-28T00:50:48.740Z,20.33
2023-03-28T00:56:57.350Z,17.65
2023-03-28T01:03:01.740Z,15.20
2023-03-28T01:09:08.306Z,16.27
2023-03-28T01:15:11.541Z,15.43
2023-03-28T01:21:48.834Z,17.40
2023-03-28T01:28:05.496Z,17.88
2023-03-28T01:34:15.061Z,16.90
2023-03-28T01:40:35.885Z,22.95
2023-03-28T01:46:52.803Z,17.45
2023-03-28T01:53:23.012Z,17.63
2023-03-28T02:00:12.627Z,13.48
2023-03-28T02:06:35.765Z,20.45
2023-03-28T02:12:56.516Z,9.93
2023-03-28T02:19:20.164Z,17.53
2023-03-28T02:25:41.413Z,13.48
2023-03-28T02:32:12.316Z,24.90
2023-03-28T02:38:38.890Z,21.67
2023-03-28T02:45:16.470Z,26.80
2023-03-28T02:51:40.519Z,14.95
2023-03-28T02:57:48.487Z,16.83
2023-03-28T03:03:50.364Z,20.17
2023-03-28T03:09:53.796Z,14.48
2023-03-28T03:15:56.162Z,19.15
2023-03-28T03:21:59.343Z,24.73
2023-03-28T03:28:01.711Z,20.23
2023-03-28T03:34:04.254Z,21.90
2023-03-28T03:40:12.949Z,15.10
2023-03-28T03:46:17.861Z,26.30
2023-03-28T03:52:21.929Z,20.08
2023-03-28T03:58:23.964Z,23.15
2023-03-28T04:04:26.187Z,25.50
2023-03-28T04:11:00.803Z,16.77
2023-03-28T04:23:10.062Z,20.58
2023-03-28T04:29:13.776Z,23.52
2023-03-28T04:35:23.627Z,27.73
2023-03-28T04:41:27.117Z,15.02
2023-03-28T04:47:40.038Z,26.27
2023-03-28T04:53:47.677Z,25.13
2023-03-28T05:00:10.069Z,21.58
2023-03-28T05:06:30.237Z,16.08
2023-03-28T05:12:32.611Z,14.27
2023-03-28T05:18:38.987Z,18.53
2023-03-28T05:24:41.588Z,24.08
2023-03-28T05:30:51.392Z,19.85
2023-03-28T05:36:53.372Z,16.75
2023-03-28T05:43:00.152Z,21.42
2023-03-28T05:49:02.253Z,20.23
2023-03-28T05:55:08.134Z,29.77
2023-03-28T06:01:10.044Z,19.58
2023-03-28T06:07:13.554Z,20.42
2023-03-28T06:13:15.840Z,19.05
2023-03-28T06:19:20.482Z,17.42
2023-03-28T06:25:30.888Z,15.32
2023-03-28T06:31:33.564Z,16.38
2023-03-28T06:37:35.707Z,22.23
2023-03-28T06:43:44.008Z,15.95
2023-03-28T06:50:06.178Z,20.70
2023-03-28T06:56:13.322Z,27.23
2023-03-28T07:02:15.745Z,19.35
2023-03-28T07:08:18.744Z,16.50
2023-03-28T07:14:20.965Z,19.30
2023-03-28T07:20:24.063Z,15.95
2023-03-28T07:26:27.633Z,17.95
2023-03-28T07:32:38.746Z,19.08
2023-03-28T07:38:47.287Z,16.75
2023-03-28T07:44:50.875Z,22.20
2023-03-28T07:50:52.699Z,19.70
2023-03-28T07:56:55.053Z,15.38
2023-03-28T08:03:14.401Z,14.68
2023-03-28T08:09:16.965Z,20.92
2023-03-28T08:15:21.859Z,16.67
2023-03-28T08:21:26.704Z,24.60
2023-03-28T08:27:29.364Z,17.60
2023-03-28T08:39:41.513Z,19.48
2023-03-28T08:45:53.487Z,20.40
2023-03-28T08:52:01.742Z,20.50
2023-03-28T08:58:04.465Z,24.17
2023-03-28T09:04:06.827Z,23.08
2023-03-28T09:10:41.666Z,21.40
2023-03-28T09:16:54.152Z,16.73
2023-03-28T09:23:42.377Z,20.42
2023-03-28T09:30:27.099Z,23.58
2023-03-28T09:36:41.453Z,15.52
2023-03-28T09:43:02.338Z,18.52
2023-03-28T09:49:23.757Z,15.50
2023-03-28T09:55:31.315Z,18.20
2023-03-28T10:01:46.962Z,20.58
2023-03-28T10:07:58.645Z,18.25
2023-03-28T10:14:31.063Z,14.48
2023-03-28T10:20:37.361Z,17.80
2023-03-28T10:26:41.568Z,20.02
2023-03-28T10:32:43.596Z,12.65
2023-03-28T10:38:51.903Z,15.75
2023-03-28T10:45:05.684Z,25.40
2023-03-28T10:51:22.502Z,12.52
2023-03-28T10:57:29.905Z,11.75
2023-03-28T11:03:52.820Z,9.02
2023-03-28T11:10:30.750Z,10.88
2023-03-28T11:17:11.390Z,8.73
2023-03-28T11:23:53.682Z,12.70
2023-03-28T11:30:10.998Z,8.43
2023-03-28T11:36:26.186Z,10.00
2023-03-28T11:42:43.152Z,7.28
2023-03-28T11:49:02.051Z,9.55
2023-03-28T11:55:26.431Z,6.63
2023-03-28T12:01:32.573Z,8.35
2023-03-28T12:07:48.263Z,14.57
2023-03-28T12:14:18.663Z,6.55
2023-03-28T12:20:30.958Z,8.80
2023-03-28T12:26:58.182Z,10.73
2023-03-28T12:33:26.054Z,6.43
2023-03-28T12:40:12.923Z,8.27
2023-03-28T12:46:29.668Z,9.40
2023-03-28T12:52:38.244Z,10.27
2023-03-28T12:58:46.800Z,12.10
2023-03-28T13:05:30.674Z,8.15
2023-03-28T13:11:40.141Z,8.60
2023-03-28T13:18:09.096Z,12.75
2023-03-28T13:24:32.345Z,9.45
2023-03-28T13:30:34.721Z,15.02
2023-03-28T13:36:36.534Z,6.47
2023-03-28T13:42:56.630Z,10.25
2023-03-28T13:49:06.706Z,8.25
2023-03-28T13:55:26.939Z,12.82
2023-03-28T14:01:49.129Z,7.43
2023-03-28T14:07:52.684Z,8.38
2023-03-28T14:14:02.838Z,8.82
2023-03-28T14:20:07.471Z,8.90
2023-03-28T14:26:18.320Z,11.80
2023-03-28T14:32:33.003Z,8.15
2023-03-28T14:38:38.419Z,8.50
2023-03-28T14:44:54.346Z,10.45
2023-03-28T14:50:59.333Z,9.60
2023-03-28T14:57:03.826Z,14.05
2023-03-28T15:03:17.599Z,9.30
2023-03-28T15:09:32.638Z,10.68
2023-03-28T15:15:43.168Z,12.73
2023-03-28T15:21:52.996Z,9.07
2023-03-28T15:27:57.971Z,12.32
2023-03-28T15:33:59.780Z,9.15
2023-03-28T15:40:27.260Z,6.72
2023-03-28T15:46:32.811Z,7.40
2023-03-28T15:52:35.718Z,10.73
2023-03-28T15:58:42.961Z,13.90
2023-03-28T16:05:10.149Z,9.80
2023-03-28T16:11:21.477Z,11.07
2023-03-28T16:17:45.224Z,12.60
2023-03-28T16:23:56.692Z,11.98
2023-03-28T16:29:58.543Z,11.90
2023-03-28T16:36:00.941Z,9.95
2023-03-28T16:42:03.742Z,7.25
2023-03-28T16:48:05.966Z,13.02
2023-03-28T16:54:10.105Z,7.40
2023-03-28T17:00:17.824Z,8.90
2023-03-28T17:06:20.178Z,7.25
2023-03-28T17:12:24.039Z,10.55
2023-03-28T17:18:26.013Z,10.63
2023-03-28T17:24:29.938Z,9.25
2023-03-28T17:30:32.092Z,8.90
2023-03-28T17:36:37.330Z,7.28
2023-03-28T17:42:39.359Z,8.27
2023-03-28T17:48:41.817Z,7.80
2023-03-28T17:54:43.828Z,10.40
2023-03-28T18:00:46.004Z,6.45
2023-03-28T18:06:47.997Z,10.15
2023-03-28T18:12:51.033Z,8.10
2023-03-28T18:18:54.278Z,6.40
2023-03-28T18:24:56.262Z,12.73
2023-03-28T18:31:08.358Z,5.53
2023-03-28T18:37:12.032Z,6.80
2023-03-28T18:43:13.800Z,6.90
2023-03-28T18:49:16.421Z,6.88
2023-03-28T18:55:19.017Z,8.65
2023-03-28T19:01:23.082Z,11.57
2023-03-28T19:07:26.578Z,10.02
2023-03-28T19:13:31.430Z,9.38
2023-03-28T19:19:37.379Z,10.25
2023-03-28T19:25:39.364Z,10.65
2023-03-28T19:31:41.869Z,11.43
2023-03-28T19:37:43.732Z,6.60
2023-03-28T19:43:48.043Z,9.93
2023-03-28T19:49:49.865Z,14.73
2023-03-28T19:55:53.239Z,9.57
2023-03-28T20:01:55.094Z,13.55
2023-03-28T20:07:57.057Z,8.73
2023-03-28T20:13:58.938Z,9.68
2023-03-28T20:20:01.006Z,13.15
2023-03-28T20:26:14.318Z,9.57
2023-03-28T20:32:16.646Z,13.30
2023-03-28T20:38:18.486Z,17.40
2023-03-28T20:44:20.772Z,14.98
2023-03-28T20:50:37.540Z,10.30
2023-03-28T20:56:39.420Z,12.52
2023-03-28T21:02:41.375Z,10.75
2023-03-28T21:08:51.352Z,9.15
2023-03-28T21:14:55.644Z,9.70
2023-03-28T21:20:58.070Z,9.45
2023-03-28T21:26:59.999Z,16.88
2023-03-28T21:33:03.903Z,9.75
2023-03-28T21:39:05.986Z,8.13
2023-03-28T21:45:08.299Z,6.93
2023-03-28T21:51:10.152Z,6.60
2023-03-28T21:57:14.708Z,11.38
2023-03-28T22:03:17.108Z,12.43
2023-03-28T22:09:19.546Z,12.73
2023-03-28T22:15:21.378Z,9.20
2023-03-28T22:21:24.956Z,7.03
2023-03-28T22:27:27.732Z,12.57
2023-03-28T22:33:32.112Z,12.23
2023-03-28T22:39:34.026Z,8.90
2023-03-28T22:45:37.053Z,6.60
2023-03-28T22:51:48.190Z,6.47
2023-03-28T22:57:52.444Z,10.13
2023-03-28T23:03:54.656Z,10.38
2023-03-28T23:09:56.799Z,6.20
2023-03-28T23:15:58.615Z,11.10
2023-03-28T23:22:01.325Z,6.82
2023-03-28T23:28:03.407Z,10.95
2023-03-28T23:34:05.229Z,10.77
2023-03-28T23:40:14.553Z,9.27
2023-03-28T23:46:16.886Z,7.43
2023-03-28T23:52:19.303Z,7.72
2023-03-28T23:58:21.418Z,8.93
